KAQO

Llano Municipal Airport

Llano, Texas, USA
METAR KAQO 211310Z AUTO 00000KT 10SM CLR 27/22 A3007 RMK AO2
Observed Flight Rules
Jul-21 @ 13:10 UTC (24 minutes ago) Visual Flight Rules
Visibility Clouds
10 miles
  • Clear skies
Temperatures Readings
Current 27°C / 81°F
Dewpoint 22°C / 72°F
Humidity 74%
Altimeter 30.07" Hg
Pressure 1018 hPa
Elevation 336
METAR KAQO 211310Z AUTO 00000KT 10SM CLR 27/22 A3007 RMK AO2
Observed Flight Rules
Jul-21 @ 13:10 UTC
(24 minutes ago)
VFR
Clouds
  • Clear skies
Temperature Dewpoint
27°C / 81°F 22°C / 72°F
Humidity Altimeter Pressure
74% 30.07" Hg 1018 hPa